createdAt,value
2024-05-09T00:00:06.435Z,89.70
2024-05-09T00:05:14.026Z,89.34
2024-05-09T00:10:25.520Z,88.70
2024-05-09T00:15:37.972Z,88.16
2024-05-09T00:20:44.983Z,89.13
2024-05-09T00:25:49.335Z,89.46
2024-05-09T00:30:53.750Z,89.64
2024-05-09T00:36:00.704Z,90.17
2024-05-09T00:41:05.066Z,90.37
2024-05-09T00:46:11.124Z,90.82
2024-05-09T00:51:18.409Z,91.00
2024-05-09T00:56:24.618Z,90.81
2024-05-09T01:01:29.410Z,90.94
2024-05-09T01:06:36.464Z,90.47
2024-05-09T01:11:42.822Z,91.17
2024-05-09T01:16:47.500Z,91.18
2024-05-09T01:21:54.695Z,91.37
2024-05-09T01:27:01.862Z,91.61
2024-05-09T01:32:06.675Z,92.20
2024-05-09T01:37:11.262Z,91.96
2024-05-09T01:42:18.614Z,92.02
2024-05-09T01:47:23.183Z,92.65
2024-05-09T01:52:27.735Z,91.99
2024-05-09T01:57:34.891Z,91.60
2024-05-09T02:02:39.849Z,90.66
2024-05-09T02:07:44.306Z,90.81
2024-05-09T02:12:51.402Z,91.24
2024-05-09T02:17:56.101Z,91.88
2024-05-09T02:23:01.590Z,92.95
2024-05-09T02:28:08.786Z,92.66
2024-05-09T02:33:14.464Z,92.58
2024-05-09T02:38:19.318Z,92.78
2024-05-09T02:43:26.427Z,92.32
2024-05-09T02:48:31.027Z,92.50
2024-05-09T02:53:35.670Z,92.35
2024-05-09T02:58:43.041Z,92.16
2024-05-09T03:03:50.420Z,91.75
2024-05-09T03:08:54.928Z,91.78
2024-05-09T03:14:02.056Z,91.23
2024-05-09T03:19:06.715Z,89.70
2024-05-09T03:24:11.251Z,89.23
2024-05-09T03:29:20.109Z,88.22
2024-05-09T03:34:24.475Z,87.92
2024-05-09T03:39:28.878Z,86.99
2024-05-09T03:44:35.851Z,86.25
2024-05-09T03:49:40.762Z,85.26
2024-05-09T03:54:48.318Z,85.39
2024-05-09T03:59:55.259Z,85.55
2024-05-09T04:04:59.623Z,85.45
2024-05-09T04:10:05.298Z,85.31
2024-05-09T04:15:13.690Z,85.41
2024-05-09T04:20:28.774Z,86.01
2024-05-09T04:25:40.972Z,85.83
2024-05-09T04:30:47.968Z,84.41
2024-05-09T04:35:52.371Z,84.50
2024-05-09T04:40:56.767Z,84.10
2024-05-09T04:46:03.800Z,84.23
2024-05-09T04:51:09.833Z,83.88
2024-05-09T04:56:14.345Z,84.07
2024-05-09T05:01:21.484Z,84.22
2024-05-09T05:06:25.820Z,84.39
2024-05-09T05:11:30.307Z,84.36
2024-05-09T05:16:37.324Z,84.47
2024-05-09T05:21:41.656Z,83.53
2024-05-09T05:26:46.145Z,83.13
2024-05-09T05:31:53.331Z,83.03
2024-05-09T05:36:57.815Z,82.60
2024-05-09T05:42:02.164Z,80.83
2024-05-09T05:47:09.280Z,79.98
2024-05-09T05:52:13.741Z,78.47
2024-05-09T05:57:18.132Z,78.63
2024-05-09T06:02:25.176Z,77.56
2024-05-09T06:07:29.619Z,77.19
2024-05-09T06:12:33.917Z,77.23
2024-05-09T06:17:40.961Z,76.08
2024-05-09T06:22:45.405Z,75.76
2024-05-09T06:27:49.725Z,73.31
2024-05-09T06:32:56.799Z,73.90
2024-05-09T06:38:01.751Z,74.10
2024-05-09T06:43:06.540Z,73.89
2024-05-09T06:48:14.088Z,74.50
2024-05-09T06:53:19.611Z,74.30
2024-05-09T06:58:23.984Z,74.43
2024-05-09T07:03:31.740Z,73.78
2024-05-09T07:08:36.291Z,73.39
2024-05-09T07:13:40.714Z,73.43
2024-05-09T07:18:49.818Z,71.89
2024-05-09T07:23:54.451Z,73.22
2024-05-09T07:28:58.912Z,71.95
2024-05-09T07:34:06.110Z,70.85
2024-05-09T07:39:10.519Z,70.85
2024-05-09T07:44:14.914Z,70.58
2024-05-09T07:54:29.354Z,69.58
2024-05-09T07:59:37.631Z,68.79
2024-05-09T08:04:44.908Z,69.50
2024-05-09T08:09:49.474Z,67.43
2024-05-09T08:14:55.336Z,67.50
2024-05-09T08:20:04.385Z,65.80
2024-05-09T08:25:11.897Z,65.80
2024-05-09T08:30:24.764Z,63.06
2024-05-09T08:35:36.826Z,64.10
2024-05-09T08:40:41.420Z,60.14
2024-05-09T08:45:46.980Z,59.37
2024-05-09T08:50:59.157Z,60.20
2024-05-09T08:56:04.731Z,57.29
2024-05-09T09:01:10.247Z,57.08
2024-05-09T09:06:20.525Z,56.61
2024-05-09T09:11:24.868Z,55.15
2024-05-09T09:16:36.415Z,56.93
2024-05-09T09:21:43.482Z,50.49
2024-05-09T09:26:47.957Z,49.82
2024-05-09T09:32:00.636Z,50.87
2024-05-09T09:37:10.183Z,51.20
2024-05-09T09:42:19.127Z,48.06
2024-05-09T09:47:24.404Z,47.82
2024-05-09T09:52:31.669Z,47.87
2024-05-09T09:57:38.097Z,46.98
2024-05-09T10:02:42.812Z,47.03
2024-05-09T10:07:50.270Z,46.06
2024-05-09T10:12:59.684Z,48.89
2024-05-09T10:18:08.337Z,47.49
2024-05-09T10:23:29.187Z,46.73
2024-05-09T10:28:34.987Z,45.78
2024-05-09T10:33:41.664Z,45.42
2024-05-09T10:38:48.877Z,48.08
2024-05-09T10:43:53.921Z,47.72
2024-05-09T10:49:04.196Z,47.57
2024-05-09T10:54:13.494Z,47.62
2024-05-09T10:59:17.840Z,46.84
2024-05-09T11:04:22.502Z,46.79
2024-05-09T11:09:29.841Z,46.16
2024-05-09T11:14:34.355Z,45.53
2024-05-09T11:19:41.545Z,44.56
2024-05-09T11:24:48.650Z,42.90
2024-05-09T11:29:53.115Z,44.69
2024-05-09T11:34:57.426Z,41.98
2024-05-09T11:40:07.100Z,42.25
2024-05-09T11:45:15.923Z,42.01
2024-05-09T11:50:27.150Z,41.16
2024-05-09T11:55:39.414Z,41.67
2024-05-09T12:00:43.936Z,44.22
2024-05-09T12:05:48.687Z,44.57
2024-05-09T12:10:56.236Z,45.51
2024-05-09T12:16:01.266Z,44.71
2024-05-09T12:21:05.824Z,42.56
2024-05-09T12:26:14.011Z,43.59
2024-05-09T12:31:18.366Z,44.19
2024-05-09T12:36:22.779Z,44.27
2024-05-09T12:41:29.829Z,44.12
2024-05-09T12:46:34.535Z,42.65
2024-05-09T12:51:39.093Z,42.03
2024-05-09T12:56:46.146Z,41.79
2024-05-09T13:01:51.054Z,41.73
2024-05-09T13:06:55.535Z,40.92
2024-05-09T13:12:03.008Z,41.36
2024-05-09T13:17:07.837Z,41.56
2024-05-09T13:22:12.342Z,40.08
2024-05-09T13:27:19.412Z,40.25
2024-05-09T13:32:23.910Z,39.74
2024-05-09T13:37:28.612Z,39.59
2024-05-09T13:42:35.621Z,38.27
2024-05-09T13:47:40.276Z,39.88
2024-05-09T13:52:44.696Z,41.55
2024-05-09T13:57:52.095Z,42.36
2024-05-09T14:02:56.718Z,41.42
2024-05-09T14:08:01.245Z,40.90
2024-05-09T14:13:08.316Z,41.51
2024-05-09T14:18:14.178Z,41.35
2024-05-09T14:23:20.520Z,39.61
2024-05-09T14:28:27.992Z,39.87
2024-05-09T14:33:32.629Z,40.18
2024-05-09T14:38:37.087Z,38.67
2024-05-09T14:43:44.015Z,37.85
2024-05-09T14:48:48.728Z,38.99
2024-05-09T14:53:53.218Z,39.04
2024-05-09T14:59:01.183Z,38.51
2024-05-09T15:04:05.709Z,39.42
2024-05-09T15:09:10.222Z,36.70
2024-05-09T15:14:17.179Z,32.94
2024-05-09T15:19:21.910Z,33.12
2024-05-09T15:24:26.364Z,31.99
2024-05-09T15:29:33.373Z,29.27
2024-05-09T15:34:37.797Z,30.75
2024-05-09T15:39:42.777Z,32.84
2024-05-09T15:44:52.956Z,31.03
2024-05-09T15:49:57.499Z,31.54
2024-05-09T15:55:01.953Z,32.00
2024-05-09T16:00:21.443Z,29.68
2024-05-09T16:05:29.689Z,30.38
2024-05-09T16:10:35.138Z,31.77
2024-05-09T16:15:42.717Z,33.41
2024-05-09T16:20:49.500Z,34.60
2024-05-09T16:25:54.757Z,35.47
2024-05-09T16:31:02.534Z,34.59
2024-05-09T16:36:07.598Z,33.76
2024-05-09T16:41:13.306Z,33.95
2024-05-09T16:46:22.330Z,34.80
2024-05-09T16:51:26.717Z,33.53
2024-05-09T16:56:31.092Z,33.34
2024-05-09T17:01:38.086Z,34.04
2024-05-09T17:06:42.603Z,33.48
2024-05-09T17:11:47.074Z,35.19
2024-05-09T17:16:54.290Z,35.60
2024-05-09T17:21:58.789Z,35.45
2024-05-09T17:27:03.443Z,36.65
2024-05-09T17:32:10.715Z,35.76
2024-05-09T17:37:15.145Z,36.72
2024-05-09T17:42:19.561Z,37.37
2024-05-09T17:47:26.655Z,36.59
2024-05-09T17:52:31.203Z,38.35
2024-05-09T17:57:35.979Z,42.09
2024-05-09T18:02:43.008Z,43.68
2024-05-09T18:07:47.467Z,46.61
2024-05-09T18:12:51.835Z,47.46
2024-05-09T18:17:59.393Z,48.28
2024-05-09T18:23:03.865Z,49.40
2024-05-09T18:28:09.475Z,51.71
2024-05-09T18:33:17.061Z,52.38
2024-05-09T18:44:44.139Z,56.42
2024-05-09T18:49:51.452Z,58.56
2024-05-09T18:54:55.865Z,57.78
2024-05-09T19:00:00.441Z,58.50
2024-05-09T19:05:07.955Z,59.86
2024-05-09T19:10:22.213Z,61.11
2024-05-09T19:15:30.231Z,60.13
2024-05-09T19:20:38.064Z,66.40
2024-05-09T19:25:43.325Z,64.78
2024-05-09T19:30:48.220Z,66.79
2024-05-09T19:35:55.504Z,68.89
2024-05-09T19:41:00.369Z,70.33
2024-05-09T19:46:05.475Z,73.68
2024-05-09T19:51:13.023Z,75.02
2024-05-09T19:56:18.024Z,76.42
2024-05-09T20:01:22.957Z,77.34
2024-05-09T20:06:30.702Z,75.89
2024-05-09T20:11:41.741Z,74.61
2024-05-09T20:16:47.106Z,73.60
2024-05-09T20:21:54.703Z,73.82
2024-05-09T20:26:59.125Z,74.88
2024-05-09T20:32:04.548Z,74.00
2024-05-09T20:37:12.286Z,70.74
2024-05-09T20:42:17.290Z,66.83
2024-05-09T20:47:22.296Z,66.85
2024-05-09T20:52:32.243Z,70.10
2024-05-09T20:57:37.093Z,69.41
2024-05-09T21:02:43.696Z,70.00
2024-05-09T21:07:51.319Z,69.24
2024-05-09T21:12:56.526Z,69.56
2024-05-09T21:18:02.184Z,70.12
2024-05-09T21:23:11.083Z,71.48
2024-05-09T21:28:15.574Z,72.68
2024-05-09T21:33:22.581Z,72.95
2024-05-09T21:38:29.617Z,71.27
2024-05-09T21:43:34.618Z,72.00
2024-05-09T21:48:39.559Z,73.29
2024-05-09T21:53:47.153Z,73.54
2024-05-09T21:58:51.617Z,74.70
2024-05-09T22:03:56.510Z,75.68
2024-05-09T22:09:05.751Z,77.59
2024-05-09T22:14:10.302Z,80.04
2024-05-09T22:19:15.119Z,80.81
2024-05-09T22:24:22.484Z,81.27
2024-05-09T22:29:26.849Z,81.60
2024-05-09T22:34:32.729Z,81.29
2024-05-09T22:39:39.988Z,81.94
2024-05-09T22:44:45.035Z,81.33
2024-05-09T22:49:49.740Z,79.26
2024-05-09T22:54:57.841Z,80.21
2024-05-09T23:00:02.575Z,77.86
2024-05-09T23:05:08.726Z,75.42
2024-05-09T23:10:21.467Z,72.75
2024-05-09T23:15:32.630Z,73.27
2024-05-09T23:20:39.465Z,73.74
2024-05-09T23:25:47.439Z,74.65
2024-05-09T23:30:52.500Z,74.98
2024-05-09T23:35:56.875Z,75.14
2024-05-09T23:41:03.961Z,75.39
2024-05-09T23:46:08.945Z,74.83
2024-05-09T23:51:13.378Z,73.89
2024-05-09T23:56:24.448Z,74.04
